Time;durP1;ratioP1;P1;durP2;ratioP2;P2;SDS_P1;SDS_P2;PMS_P1;PMS_P2;Temp;Humidity;BMP_temperature;BMP_pressure;BME280_temperature;BME280_humidity;BME280_pressure;Samples;Min_cycle;Max_cycle;Signal;HPM_P1;HPM_P2
2021/06/18 00:00:37;;;;;;;9.08;4.47;;;19.50;82.00;;;;;;1863045;76;21019;-52
2021/06/18 00:03:07;;;;;;;12.80;5.35;;;19.50;82.10;;;;;;1863065;76;21104;-51
2021/06/18 00:05:36;;;;;;;7.40;4.50;;;19.60;82.40;;;;;;1863003;76;21007;-47
2021/06/18 00:08:06;;;;;;;7.08;4.00;;;19.60;82.50;;;;;;1863061;77;21093;-48
2021/06/18 00:10:36;;;;;;;6.92;4.25;;;19.70;82.40;;;;;;1863188;77;21026;-51
2021/06/18 00:13:05;;;;;;;6.47;4.25;;;19.70;82.20;;;;;;1863222;77;21027;-47
2021/06/18 00:15:35;;;;;;;7.05;4.70;;;19.70;82.10;;;;;;1863275;77;21028;-51
2021/06/18 00:18:04;;;;;;;6.37;4.35;;;19.70;82.10;;;;;;1863118;77;21027;-49
2021/06/18 00:20:34;;;;;;;7.05;4.67;;;19.60;81.90;;;;;;1863232;77;21528;-48
2021/06/18 00:23:03;;;;;;;7.92;4.87;;;19.60;81.80;;;;;;1863169;77;21125;-48
2021/06/18 00:25:33;;;;;;;7.62;4.78;;;19.50;81.90;;;;;;1863207;77;21090;-51
2021/06/18 00:28:02;;;;;;;7.85;4.87;;;19.50;82.10;;;;;;1863069;77;21352;-49
2021/06/18 00:30:31;;;;;;;5.87;3.87;;;19.50;82.40;;;;;;1863217;77;21023;-50
2021/06/18 00:33:01;;;;;;;6.80;5.17;;;19.50;82.50;;;;;;1871934;75;21066;-47
2021/06/18 00:35:31;;;;;;;9.85;4.87;;;19.50;82.50;;;;;;1875237;76;21030;-49
2021/06/18 00:38:01;;;;;;;7.50;4.72;;;19.50;82.60;;;;;;1875299;76;21108;-49
2021/06/18 00:40:30;;;;;;;7.00;4.50;;;19.50;82.60;;;;;;1875264;76;21097;-48
2021/06/18 00:43:00;;;;;;;6.87;4.97;;;19.50;82.50;;;;;;1875188;76;21030;-50
2021/06/18 00:45:31;;;;;;;8.95;5.10;;;19.50;82.30;;;;;;1875374;76;21528;-50
2021/06/18 00:48:01;;;;;;;6.58;4.70;;;19.50;81.80;;;;;;1875184;75;21081;-49
2021/06/18 00:50:31;;;;;;;8.98;5.92;;;19.40;82.10;;;;;;1875237;76;21006;-51
2021/06/18 00:53:00;;;;;;;8.25;5.37;;;19.40;82.60;;;;;;1875352;75;21116;-50
2021/06/18 00:55:31;;;;;;;8.23;5.33;;;19.40;82.70;;;;;;1875252;76;21093;-49
2021/06/18 00:58:01;;;;;;;7.30;5.55;;;19.40;82.80;;;;;;1875323;76;21053;-50
2021/06/18 01:00:31;;;;;;;8.30;5.50;;;19.40;82.90;;;;;;1875322;76;21030;-50
2021/06/18 01:03:00;;;;;;;10.75;6.00;;;19.40;82.90;;;;;;1875177;76;21018;-48
2021/06/18 01:05:30;;;;;;;15.63;5.85;;;19.40;82.90;;;;;;1875223;76;21007;-50
2021/06/18 01:08:08;;;;;;;10.65;6.05;;;19.40;82.70;;;;;;1875191;76;21042;-49
2021/06/18 01:10:45;;;;;;;7.62;5.10;;;19.30;82.60;;;;;;1875304;76;21002;-50
2021/06/18 01:13:37;;;;;;;9.55;5.47;;;19.30;82.70;;;;;;1875355;76;21018;-48
2021/06/18 01:16:15;;;;;;;11.00;5.55;;;19.30;82.80;;;;;;1875289;76;21038;-51
2021/06/18 01:18:47;;;;;;;11.30;5.62;;;19.20;82.70;;;;;;1875231;76;21554;-51
2021/06/18 01:21:19;;;;;;;9.78;5.25;;;19.30;82.50;;;;;;1833360;78;21513;-50
2021/06/18 01:23:51;;;;;;;7.20;5.03;;;19.20;82.50;;;;;;1884167;76;21108;-51
2021/06/18 01:26:32;;;;;;;8.38;5.40;;;19.20;82.70;;;;;;1883610;76;21026;-47
2021/06/18 01:29:02;;;;;;;8.50;5.47;;;19.20;83.00;;;;;;1840061;78;21092;-50
2021/06/18 01:31:43;;;;;;;9.63;5.85;;;19.20;83.10;;;;;;1875167;76;21007;-47
2021/06/18 01:34:18;;;;;;;5.47;4.85;;;19.20;83.10;;;;;;1863185;75;21169;-47
2021/06/18 01:36:50;;;;;;;7.53;4.62;;;19.20;83.10;;;;;;1863022;76;21089;-46
2021/06/18 01:39:21;;;;;;;6.97;5.00;;;19.20;83.20;;;;;;1863270;77;21042;-50
2021/06/18 01:41:53;;;;;;;8.23;5.60;;;19.20;83.20;;;;;;1863082;76;21097;-50
2021/06/18 01:44:23;;;;;;;7.75;4.85;;;19.20;83.00;;;;;;1863104;76;21023;-48
2021/06/18 01:46:54;;;;;;;8.08;5.42;;;19.20;83.10;;;;;;1863043;76;21093;-51
2021/06/18 01:49:24;;;;;;;8.03;4.87;;;19.20;82.90;;;;;;1863090;77;21088;-47
2021/06/18 01:51:56;;;;;;;9.08;5.53;;;19.20;82.90;;;;;;1863079;77;21070;-47
2021/06/18 01:54:29;;;;;;;6.85;4.78;;;19.10;82.80;;;;;;1863127;76;21027;-50
2021/06/18 01:57:00;;;;;;;9.53;6.05;;;19.00;82.70;;;;;;1863058;77;21023;-50
2021/06/18 01:59:32;;;;;;;10.88;6.12;;;18.90;82.50;;;;;;1863205;77;21034;-47
2021/06/18 02:02:02;;;;;;;8.15;5.22;;;18.80;82.50;;;;;;1863059;77;21485;-50
2021/06/18 02:04:34;;;;;;;8.60;6.10;;;18.70;83.20;;;;;;1863223;77;21027;-50
2021/06/18 02:07:04;;;;;;;6.75;5.70;;;18.70;83.30;;;;;;1863108;76;21024;-47
2021/06/18 02:09:35;;;;;;;12.07;6.42;;;18.60;83.80;;;;;;1863223;77;21074;-49
2021/06/18 02:12:05;;;;;;;11.33;6.62;;;18.60;83.50;;;;;;1863112;76;21007;-46
2021/06/18 02:14:36;;;;;;;11.40;6.10;;;18.70;83.20;;;;;;1863172;77;21101;-49
2021/06/18 02:17:06;;;;;;;8.85;7.08;;;18.70;83.40;;;;;;1863122;77;21027;-49
2021/06/18 02:19:37;;;;;;;9.83;7.03;;;18.60;83.40;;;;;;1863057;76;21023;-49
2021/06/18 02:22:09;;;;;;;9.50;6.45;;;18.60;83.20;;;;;;1863009;76;21101;-50
2021/06/18 02:24:42;;;;;;;12.15;6.00;;;18.50;83.40;;;;;;1863090;76;21106;-50
2021/06/18 02:27:13;;;;;;;13.28;5.90;;;18.50;83.80;;;;;;1863019;76;21493;-50
2021/06/18 02:29:44;;;;;;;10.15;5.97;;;18.60;84.10;;;;;;1863215;77;21109;-50
2021/06/18 02:32:14;;;;;;;9.85;6.08;;;18.60;84.10;;;;;;1863017;76;21031;-50
2021/06/18 02:34:44;;;;;;;10.13;6.08;;;18.70;84.10;;;;;;1896052;75;21190;-49
2021/06/18 02:37:14;;;;;;;8.13;5.97;;;18.90;83.90;;;;;;1897022;76;21154;-48
2021/06/18 02:39:43;;;;;;;9.08;5.75;;;19.00;83.70;;;;;;1897061;76;21041;-51
2021/06/18 02:42:13;;;;;;;9.78;5.12;;;19.00;83.50;;;;;;1897064;75;21006;-50
2021/06/18 02:44:43;;;;;;;15.08;5.15;;;19.00;83.30;;;;;;1897073;76;21100;-50
2021/06/18 02:47:33;;;;;;;15.08;5.30;;;19.10;83.40;;;;;;1897007;75;21087;-49
2021/06/18 02:50:23;;;;;;;8.40;5.20;;;19.10;83.30;;;;;;1893179;76;21087;-50
2021/06/18 02:53:01;;;;;;;8.60;5.10;;;19.20;83.20;;;;;;1897043;74;21026;-49
2021/06/18 02:55:33;;;;;;;11.88;6.03;;;19.20;83.00;;;;;;1896008;76;21030;-49
2021/06/18 02:58:08;;;;;;;14.13;5.90;;;19.20;82.90;;;;;;1821704;77;21133;-48
2021/06/18 03:00:40;;;;;;;6.87;5.50;;;19.20;83.10;;;;;;1855454;77;21502;-50
2021/06/18 03:03:12;;;;;;;15.05;5.83;;;19.20;83.20;;;;;;1897049;76;20998;-51
2021/06/18 03:05:44;;;;;;;11.25;6.78;;;19.20;83.20;;;;;;1897144;75;21553;-50
2021/06/18 03:08:13;;;;;;;8.53;5.37;;;19.30;83.30;;;;;;1897116;76;21002;-50
2021/06/18 03:10:45;;;;;;;6.60;4.67;;;19.30;83.30;;;;;;1897143;76;21456;-49
2021/06/18 03:13:20;;;;;;;6.97;5.70;;;19.30;83.90;;;;;;1897163;76;21499;-51
2021/06/18 03:15:48;;;;;;;;;;;19.30;83.30;;;;;;1898212;74;21026;-49
2021/06/18 03:18:20;;;;;;;8.28;5.12;;;19.30;83.30;;;;;;1897016;74;20100;-50
2021/06/18 03:20:52;;;;;;;12.50;5.22;;;19.40;83.20;;;;;;1896993;76;21021;-51
2021/06/18 03:23:23;;;;;;;7.42;4.12;;;19.50;83.10;;;;;;1897051;76;21481;-52
2021/06/18 03:25:54;;;;;;;9.88;5.00;;;19.60;83.00;;;;;;1897023;76;21026;-52
2021/06/18 03:28:25;;;;;;;11.43;5.92;;;19.70;83.10;;;;;;1897202;74;21112;-51
2021/06/18 03:30:54;;;;;;;9.10;5.62;;;19.80;82.60;;;;;;1897117;74;21072;-51
2021/06/18 03:33:25;;;;;;;10.20;5.30;;;19.80;82.20;;;;;;1897111;76;21061;-48
2021/06/18 03:35:55;;;;;;;8.35;5.55;;;19.90;82.10;;;;;;1897247;76;21097;-53
2021/06/18 03:38:25;;;;;;;7.10;4.92;;;19.90;82.20;;;;;;1897250;75;21135;-52
2021/06/18 03:40:54;;;;;;;11.53;6.15;;;20.00;82.10;;;;;;1896995;74;21080;-48
2021/06/18 03:43:24;;;;;;;11.28;5.30;;;20.00;81.80;;;;;;1896977;76;21346;-51
2021/06/18 03:45:56;;;;;;;7.03;5.30;;;20.10;81.90;;;;;;1897182;76;21031;-50
2021/06/18 03:48:25;;;;;;;10.45;5.40;;;20.20;81.50;;;;;;1897197;75;21519;-48
2021/06/18 03:50:55;;;;;;;10.88;5.67;;;20.20;81.30;;;;;;1897194;75;21073;-51
2021/06/18 03:53:25;;;;;;;8.40;5.47;;;20.30;81.20;;;;;;1897075;76;21049;-52
2021/06/18 03:55:54;;;;;;;5.97;4.70;;;20.30;81.30;;;;;;1897185;76;21065;-51
2021/06/18 03:58:26;;;;;;;9.90;4.55;;;20.40;81.30;;;;;;1897236;76;21022;-51
2021/06/18 04:00:57;;;;;;;16.97;5.25;;;20.50;81.10;;;;;;1897258;76;21029;-51
2021/06/18 04:03:28;;;;;;;7.12;5.03;;;20.50;80.90;;;;;;1897054;76;21006;-52
2021/06/18 04:06:03;;;;;;;8.98;5.30;;;20.50;80.90;;;;;;1897071;76;21026;-52
2021/06/18 04:08:34;;;;;;;10.25;5.00;;;20.60;80.90;;;;;;1897336;76;21412;-51
2021/06/18 04:11:06;;;;;;;5.72;4.50;;;20.70;80.60;;;;;;1897292;76;21046;-52
2021/06/18 04:13:37;;;;;;;10.32;5.20;;;20.70;80.50;;;;;;1897163;76;21091;-51
2021/06/18 04:16:08;;;;;;;5.20;4.35;;;20.70;80.60;;;;;;1897153;76;20998;-52
2021/06/18 04:18:42;;;;;;;13.58;5.12;;;20.80;80.70;;;;;;1896730;74;21077;-52
2021/06/18 04:21:13;;;;;;;11.63;5.10;;;20.70;80.40;;;;;;1897049;76;21216;-52
2021/06/18 04:23:43;;;;;;;8.23;4.47;;;20.80;80.20;;;;;;1896036;76;21046;-49
2021/06/18 04:26:12;;;;;;;10.13;5.67;;;20.80;80.10;;;;;;1897104;76;21025;-52
2021/06/18 04:28:42;;;;;;;13.45;4.40;;;20.80;80.10;;;;;;1896983;76;21022;-51
2021/06/18 04:31:12;;;;;;;10.63;5.30;;;20.90;79.90;;;;;;1897059;76;21061;-50
2021/06/18 04:33:43;;;;;;;7.42;4.35;;;20.90;79.90;;;;;;1897116;74;21030;-51
2021/06/18 04:36:12;;;;;;;7.97;3.80;;;21.00;79.70;;;;;;1897048;76;21024;-52
2021/06/18 04:38:42;;;;;;;9.83;4.83;;;21.20;79.40;;;;;;1897126;74;21092;-51
2021/06/18 04:41:12;;;;;;;5.40;4.28;;;21.30;78.90;;;;;;1897056;76;21087;-52
2021/06/18 04:43:42;;;;;;;7.78;4.92;;;21.30;78.70;;;;;;1897108;76;21005;-52
2021/06/18 04:46:11;;;;;;;6.95;4.58;;;21.40;78.50;;;;;;1897109;76;21006;-48
2021/06/18 04:48:40;;;;;;;7.80;3.42;;;21.50;78.40;;;;;;1897090;75;21034;-50
2021/06/18 04:51:10;;;;;;;6.78;4.03;;;21.60;78.40;;;;;;1897219;76;21093;-50
2021/06/18 04:53:39;;;;;;;4.58;3.62;;;21.70;77.80;;;;;;1897081;75;21095;-50
2021/06/18 04:56:08;;;;;;;5.55;3.92;;;21.90;77.60;;;;;;1897135;75;21091;-48
2021/06/18 04:58:39;;;;;;;6.85;4.28;;;22.00;77.50;;;;;;1897087;74;21022;-52
2021/06/18 05:01:09;;;;;;;10.08;4.97;;;22.10;77.20;;;;;;1896982;75;21021;-52
2021/06/18 05:03:38;;;;;;;6.12;4.10;;;22.10;77.00;;;;;;1897061;76;21049;-51
2021/06/18 05:06:07;;;;;;;5.80;3.35;;;22.30;77.00;;;;;;1897068;76;21021;-50
2021/06/18 05:08:36;;;;;;;9.63;4.40;;;22.40;76.20;;;;;;1897117;76;21444;-52
2021/06/18 05:11:06;;;;;;;9.33;4.70;;;22.40;75.80;;;;;;1897063;76;21002;-52
2021/06/18 05:13:35;;;;;;;11.30;4.00;;;22.40;75.80;;;;;;1896904;76;21077;-52
2021/06/18 05:16:05;;;;;;;9.70;4.25;;;22.40;76.10;;;;;;1896996;76;21215;-50
2021/06/18 05:18:35;;;;;;;7.47;4.00;;;22.40;76.20;;;;;;1897099;76;21147;-52
2021/06/18 05:21:04;;;;;;;6.55;3.37;;;22.50;75.80;;;;;;1896974;76;21100;-51
2021/06/18 05:23:34;;;;;;;4.37;3.30;;;22.60;75.60;;;;;;1897063;75;21026;-48
2021/06/18 05:26:03;;;;;;;5.58;3.33;;;22.60;74.90;;;;;;1897106;74;21022;-51
2021/06/18 05:28:33;;;;;;;5.70;3.83;;;22.60;74.70;;;;;;1897115;75;21018;-52
2021/06/18 05:31:02;;;;;;;7.92;4.70;;;22.70;74.50;;;;;;1897243;76;21112;-51
2021/06/18 05:33:32;;;;;;;6.45;3.92;;;22.70;74.50;;;;;;1897143;76;21513;-49
2021/06/18 05:36:01;;;;;;;6.33;3.80;;;22.80;74.30;;;;;;1896859;75;21057;-49
2021/06/18 05:38:31;;;;;;;10.05;4.17;;;22.90;74.20;;;;;;1897115;76;21179;-47
2021/06/18 05:41:00;;;;;;;6.67;3.77;;;22.90;73.90;;;;;;1897110;76;21030;-50
2021/06/18 05:43:30;;;;;;;6.53;3.72;;;23.00;73.40;;;;;;1896957;76;21100;-50
2021/06/18 05:45:59;;;;;;;6.70;3.10;;;23.00;73.40;;;;;;1896985;76;21005;-48
2021/06/18 05:48:28;;;;;;;8.35;3.83;;;23.00;73.50;;;;;;1897075;76;21089;-51
2021/06/18 05:50:58;;;;;;;5.87;3.60;;;23.00;73.50;;;;;;1897253;76;21104;-50
2021/06/18 05:53:27;;;;;;;9.70;3.72;;;23.00;73.20;;;;;;1897162;76;21025;-50
2021/06/18 05:55:57;;;;;;;6.10;3.37;;;23.00;73.00;;;;;;1897115;76;21034;-49
2021/06/18 05:58:26;;;;;;;5.35;3.15;;;23.00;72.70;;;;;;1897013;76;21092;-49
2021/06/18 06:00:56;;;;;;;19.80;4.78;;;23.10;72.60;;;;;;1897016;76;21080;-51
2021/06/18 06:03:25;;;;;;;6.75;3.90;;;23.20;72.70;;;;;;1897010;76;21100;-51
2021/06/18 06:05:55;;;;;;;6.75;3.30;;;23.40;72.40;;;;;;1897065;75;21085;-49
2021/06/18 06:08:24;;;;;;;4.10;3.55;;;23.50;71.80;;;;;;1897075;76;21029;-51
2021/06/18 06:10:54;;;;;;;5.90;3.22;;;23.60;71.40;;;;;;1897056;76;21034;-52
2021/06/18 06:13:25;;;;;;;6.08;4.03;;;23.60;71.00;;;;;;1897151;76;21034;-49
2021/06/18 06:15:54;;;;;;;6.72;3.10;;;23.60;71.60;;;;;;1897052;76;21026;-50
2021/06/18 06:18:24;;;;;;;4.20;3.10;;;23.60;70.40;;;;;;1897028;76;21049;-51
2021/06/18 06:20:53;;;;;;;5.97;2.90;;;23.70;70.60;;;;;;1897058;75;21038;-52
2021/06/18 06:23:22;;;;;;;4.92;3.17;;;23.80;69.40;;;;;;1896983;76;21010;-51
2021/06/18 06:25:52;;;;;;;4.50;3.20;;;23.90;69.50;;;;;;1897037;74;21034;-51
2021/06/18 06:28:21;;;;;;;8.58;3.00;;;24.00;69.00;;;;;;1897179;74;21030;-51
2021/06/18 06:30:51;;;;;;;4.70;2.30;;;24.10;68.80;;;;;;1897104;76;21091;-51
2021/06/18 06:33:20;;;;;;;6.00;2.72;;;24.20;68.20;;;;;;1897048;76;21061;-52
2021/06/18 06:35:49;;;;;;;3.85;3.00;;;24.40;68.10;;;;;;1896983;75;21062;-52
2021/06/18 06:38:20;;;;;;;5.53;2.87;;;24.50;67.80;;;;;;1897121;76;21504;-51
2021/06/18 06:40:50;;;;;;;7.42;3.67;;;24.60;67.90;;;;;;1897114;76;21002;-51
2021/06/18 06:43:22;;;;;;;3.35;2.95;;;24.70;67.00;;;;;;1897094;76;21033;-51
2021/06/18 06:45:52;;;;;;;5.22;3.47;;;24.80;66.40;;;;;;1897087;76;21033;-50
2021/06/18 06:48:21;;;;;;;2.60;2.40;;;24.90;65.30;;;;;;1897014;76;21043;-51
2021/06/18 06:50:51;;;;;;;4.45;3.50;;;24.90;65.60;;;;;;1897040;75;21095;-52
2021/06/18 06:53:20;;;;;;;5.03;3.55;;;24.90;65.40;;;;;;1897175;76;21022;-48
2021/06/18 06:55:50;;;;;;;3.27;2.55;;;24.90;65.60;;;;;;1897153;74;21100;-49
2021/06/18 06:58:20;;;;;;;3.17;2.83;;;25.00;65.50;;;;;;1897046;76;21072;-52
2021/06/18 07:00:50;;;;;;;3.02;2.72;;;25.00;64.90;;;;;;1896938;76;21006;-52
2021/06/18 07:03:19;;;;;;;3.77;2.80;;;25.00;65.30;;;;;;1897107;76;21092;-50
2021/06/18 07:05:49;;;;;;;6.95;3.25;;;25.00;65.50;;;;;;1896997;76;21033;-52
2021/06/18 07:08:20;;;;;;;8.25;2.95;;;25.10;66.10;;;;;;1896973;76;21025;-52
2021/06/18 07:10:51;;;;;;;6.30;3.75;;;25.10;64.30;;;;;;1895861;76;21121;-52
2021/06/18 07:13:20;;;;;;;4.35;2.87;;;25.10;64.40;;;;;;1896235;76;21083;-52
2021/06/18 07:15:51;;;;;;;4.20;3.12;;;25.10;64.50;;;;;;1896443;74;21131;-51
2021/06/18 07:18:21;;;;;;;4.08;2.80;;;25.20;64.50;;;;;;1896422;75;21030;-52
2021/06/18 07:20:51;;;;;;;5.65;2.92;;;25.20;63.60;;;;;;1896243;76;21081;-50
2021/06/18 07:23:20;;;;;;;5.45;2.85;;;25.20;63.50;;;;;;1896823;76;21131;-47
2021/06/18 07:25:49;;;;;;;6.60;3.12;;;25.20;63.50;;;;;;1896393;75;21080;-50
2021/06/18 07:28:19;;;;;;;4.92;3.00;;;25.30;63.70;;;;;;1896244;74;21038;-51
2021/06/18 07:30:48;;;;;;;3.33;2.50;;;25.50;63.50;;;;;;1896555;76;21038;-50
2021/06/18 07:33:18;;;;;;;11.83;4.42;;;25.60;63.10;;;;;;1896338;76;21084;-50
2021/06/18 07:35:47;;;;;;;7.15;2.62;;;25.60;62.60;;;;;;1896347;75;21030;-50
2021/06/18 07:38:17;;;;;;;4.10;2.25;;;25.70;61.70;;;;;;1896328;76;21065;-51
2021/06/18 07:40:46;;;;;;;5.83;4.20;;;25.60;62.40;;;;;;1896316;74;21124;-49
2021/06/18 07:43:16;;;;;;;4.83;2.90;;;25.60;62.00;;;;;;1896201;76;20998;-48
2021/06/18 07:45:45;;;;;;;7.95;3.47;;;25.60;61.60;;;;;;1896427;76;21017;-51
2021/06/18 07:48:14;;;;;;;19.50;11.57;;;25.60;61.30;;;;;;1896461;76;21065;-49
2021/06/18 07:50:44;;;;;;;8.50;3.40;;;25.60;61.50;;;;;;1896333;75;21100;-48
2021/06/18 07:53:14;;;;;;;6.30;3.15;;;25.60;61.80;;;;;;1896177;74;21092;-50
2021/06/18 07:55:43;;;;;;;11.88;3.22;;;25.60;61.60;;;;;;1896149;76;21104;-51
2021/06/18 07:58:13;;;;;;;10.25;8.48;;;25.70;61.70;;;;;;1896446;74;21135;-52
2021/06/18 08:00:42;;;;;;;4.00;3.40;;;25.80;62.20;;;;;;1896370;76;21025;-51
2021/06/18 08:03:11;;;;;;;6.22;2.98;;;25.90;61.50;;;;;;1896201;76;21088;-49
2021/06/18 08:05:41;;;;;;;6.33;3.20;;;25.90;61.60;;;;;;1896379;75;21002;-51
2021/06/18 08:08:12;;;;;;;3.77;2.52;;;25.90;61.60;;;;;;1896546;75;21022;-49
2021/06/18 08:10:41;;;;;;;4.60;2.60;;;26.00;61.50;;;;;;1896333;76;21018;-52
2021/06/18 08:13:11;;;;;;;5.60;2.72;;;26.10;61.00;;;;;;1896425;76;21100;-51
2021/06/18 08:15:40;;;;;;;27.37;5.67;;;26.20;60.70;;;;;;1896532;75;21198;-54
2021/06/18 08:18:09;;;;;;;7.20;2.80;;;26.30;60.50;;;;;;1896413;76;21085;-52
2021/06/18 08:20:39;;;;;;;5.00;3.67;;;26.40;61.20;;;;;;1896299;74;21057;-52
2021/06/18 08:23:08;;;;;;;10.20;5.30;;;26.60;61.20;;;;;;1896391;75;21092;-51
2021/06/18 08:25:37;;;;;;;3.90;2.47;;;26.70;61.00;;;;;;1896232;76;21030;-51
2021/06/18 08:28:07;;;;;;;3.83;3.00;;;26.70;59.90;;;;;;1896303;76;21077;-50
2021/06/18 08:30:36;;;;;;;5.72;2.45;;;26.60;60.00;;;;;;1896349;76;21144;-49
2021/06/18 08:33:05;;;;;;;3.65;2.30;;;26.60;59.60;;;;;;1896397;75;21033;-49
2021/06/18 08:35:35;;;;;;;6.30;2.92;;;26.60;59.60;;;;;;1896510;76;21005;-46
2021/06/18 08:38:04;;;;;;;4.87;2.60;;;26.60;59.80;;;;;;1870266;75;21176;-49
2021/06/18 08:40:35;;;;;;;2.72;2.33;;;26.60;59.60;;;;;;1862459;77;21152;-49
2021/06/18 08:43:05;;;;;;;5.72;3.00;;;26.40;59.60;;;;;;1862328;77;21169;-47
2021/06/18 08:45:34;;;;;;;5.60;3.17;;;26.20;60.00;;;;;;1862600;76;21051;-49
2021/06/18 08:48:04;;;;;;;6.58;3.60;;;26.10;60.30;;;;;;1862480;76;21035;-49
2021/06/18 08:50:34;;;;;;;6.62;2.50;;;26.00;61.20;;;;;;1862337;77;21136;-49
2021/06/18 08:53:05;;;;;;;4.28;3.35;;;26.10;61.10;;;;;;1862443;77;21027;-48
2021/06/18 08:55:34;;;;;;;4.00;3.12;;;26.10;61.00;;;;;;1862439;76;21140;-47
2021/06/18 08:58:04;;;;;;;6.80;3.47;;;26.10;60.40;;;;;;1862623;77;21075;-50
2021/06/18 09:00:34;;;;;;;3.47;3.08;;;26.00;60.50;;;;;;1862588;77;21070;-50
2021/06/18 09:03:22;;;;;;;7.22;3.22;;;26.00;60.60;;;;;;1862398;77;21027;-52
2021/06/18 09:05:51;;;;;;;4.95;2.30;;;26.20;61.20;;;;;;1862348;77;21082;-53
2021/06/18 09:08:21;;;;;;;6.47;4.45;;;26.40;59.20;;;;;;1862559;76;21089;-51
2021/06/18 09:10:51;;;;;;;4.53;2.80;;;26.40;59.80;;;;;;1862372;77;21093;-49
2021/06/18 09:13:34;;;;;;;2.22;1.85;;;26.50;59.90;;;;;;1862702;77;21062;-52
2021/06/18 09:16:00;;;;;;;4.55;2.83;;;26.40;57.40;;;;;;1861356;77;21066;-52
2021/06/18 09:18:41;;;;;;;6.62;2.87;;;26.30;58.70;;;;;;1862157;77;21087;-53
2021/06/18 09:21:24;;;;;;;3.22;2.55;;;26.40;59.30;;;;;;1862500;76;21106;-51
2021/06/18 09:23:56;;;;;;;3.27;2.95;;;26.50;59.40;;;;;;1862235;76;21086;-51
2021/06/18 09:26:31;;;;;;;3.40;2.35;;;26.60;58.00;;;;;;1862413;76;21035;-49
2021/06/18 09:29:14;;;;;;;4.25;2.72;;;26.70;56.90;;;;;;1862493;76;21101;-50
2021/06/18 09:31:54;;;;;;;2.77;2.12;;;26.70;57.20;;;;;;1862378;76;21023;-50
2021/06/18 09:37:30;;;;;;;14.15;3.25;;;26.90;56.00;;;;;;1863246;75;21122;-50
2021/06/18 09:40:18;;;;;;;8.05;6.53;;;26.90;55.30;;;;;;1862348;77;21077;-53
2021/06/18 09:42:59;;;;;;;3.05;2.35;;;27.00;56.00;;;;;;1862725;77;21042;-52
2021/06/18 09:45:31;;;;;;;4.37;2.60;;;27.10;55.40;;;;;;1862630;77;21003;-52
2021/06/18 09:48:14;;;;;;;2.45;2.20;;;27.20;55.30;;;;;;1863203;76;21101;-53
2021/06/18 09:50:46;;;;;;;3.43;3.13;;;27.20;54.70;;;;;;1863447;77;21039;-53
2021/06/18 09:53:23;;;;;;;3.87;3.10;;;27.30;54.90;;;;;;1863107;77;21245;-53
2021/06/18 09:56:07;;;;;;;3.95;3.45;;;27.40;55.90;;;;;;1863124;77;21106;-52
2021/06/18 09:58:41;;;;;;;4.62;2.87;;;27.30;55.30;;;;;;1863324;76;21086;-53
2021/06/18 10:01:22;;;;;;;3.83;3.00;;;27.20;55.60;;;;;;1863296;77;21031;-53
2021/06/18 10:04:12;;;;;;;5.72;3.20;;;27.10;56.30;;;;;;1863138;77;21090;-53
2021/06/18 10:06:42;;;;;;;4.00;2.83;;;27.00;56.70;;;;;;1863252;77;21035;-53
2021/06/18 10:09:16;;;;;;;3.17;2.65;;;27.00;56.60;;;;;;1863082;77;21030;-53
2021/06/18 10:11:46;;;;;;;4.10;2.70;;;27.00;56.30;;;;;;1863592;77;21081;-54
2021/06/18 10:14:15;;;;;;;3.50;2.70;;;27.00;56.60;;;;;;1863168;76;21030;-53
2021/06/18 10:16:45;;;;;;;4.62;2.50;;;27.00;56.10;;;;;;1863255;77;21498;-53
2021/06/18 10:19:17;;;;;;;3.37;2.90;;;27.00;55.90;;;;;;1863177;76;21038;-53
2021/06/18 10:21:52;;;;;;;4.85;3.30;;;27.00;55.50;;;;;;1863181;77;21168;-53
2021/06/18 10:24:24;;;;;;;7.70;3.70;;;26.90;55.80;;;;;;1856606;77;21047;-53
2021/06/18 10:26:55;;;;;;;3.80;3.42;;;26.80;56.30;;;;;;1863226;77;21517;-53
2021/06/18 10:29:38;;;;;;;5.53;3.10;;;26.80;56.00;;;;;;1863112;76;21003;-53
2021/06/18 10:32:31;;;;;;;5.42;3.47;;;26.70;56.00;;;;;;1863220;77;21468;-53
2021/06/18 10:35:02;;;;;;;11.35;4.35;;;26.70;56.50;;;;;;1816842;77;21082;-53
2021/06/18 10:37:32;;;;;;;3.80;3.20;;;26.80;56.30;;;;;;1863505;75;20996;-53
2021/06/18 10:40:10;;;;;;;5.17;3.10;;;26.90;55.60;;;;;;1875361;75;21031;-53
2021/06/18 10:42:42;;;;;;;7.47;3.30;;;27.00;55.00;;;;;;1874579;76;21118;-54
2021/06/18 10:45:12;;;;;;;4.42;3.20;;;27.00;55.20;;;;;;1852151;76;21050;-54
2021/06/18 10:47:43;;;;;;;3.50;2.83;;;27.10;55.40;;;;;;1875245;76;21050;-53
2021/06/18 10:50:13;;;;;;;3.60;2.90;;;27.10;54.40;;;;;;1875225;75;21457;-53
2021/06/18 10:52:43;;;;;;;5.00;2.55;;;27.00;54.40;;;;;;1875266;76;21003;-53
2021/06/18 10:55:14;;;;;;;5.47;2.87;;;27.00;54.60;;;;;;1875097;76;21022;-54
2021/06/18 10:57:53;;;;;;;7.50;3.65;;;27.10;54.50;;;;;;1875332;76;21539;-53
2021/06/18 11:00:27;;;;;;;5.25;3.22;;;27.30;54.10;;;;;;1875144;76;21014;-53
2021/06/18 11:02:56;;;;;;;3.80;3.00;;;27.30;54.00;;;;;;1875194;75;21469;-54
2021/06/18 11:05:33;;;;;;;6.45;2.92;;;27.30;53.50;;;;;;1875240;76;21026;-53
2021/06/18 11:08:16;;;;;;;5.58;3.30;;;27.30;53.90;;;;;;1875274;76;21042;-54
2021/06/18 11:10:45;;;;;;;5.47;3.95;;;27.30;54.20;;;;;;1853799;76;21069;-54
2021/06/18 11:13:18;;;;;;;5.00;3.27;;;27.30;54.10;;;;;;1875362;75;21026;-52
2021/06/18 11:15:46;;;;;;;6.15;3.20;;;27.20;54.30;;;;;;1875185;76;21116;-53
2021/06/18 11:18:21;;;;;;;4.97;3.25;;;27.10;54.70;;;;;;1875340;76;21019;-54
2021/06/18 11:20:55;;;;;;;3.62;3.33;;;27.10;54.80;;;;;;1874014;75;21051;-54
2021/06/18 11:23:31;;;;;;;6.37;3.37;;;27.30;55.30;;;;;;1875670;76;20999;-54
2021/06/18 11:26:09;;;;;;;4.33;2.90;;;27.50;54.00;;;;;;1875491;76;20998;-54
2021/06/18 11:28:43;;;;;;;3.52;3.22;;;27.60;54.40;;;;;;1875315;76;21030;-53
2021/06/18 11:31:21;;;;;;;5.55;3.62;;;27.70;54.40;;;;;;1875517;76;21441;-54
2021/06/18 11:33:51;;;;;;;7.03;4.10;;;27.80;54.30;;;;;;1874294;76;21054;-55
2021/06/18 11:36:24;;;;;;;;;;;27.70;54.20;;;;;;1878166;76;21085;-54
2021/06/18 11:38:59;;;;;;;4.72;3.65;;;27.50;54.00;;;;;;1883312;75;20108;-53
2021/06/18 11:41:31;;;;;;;6.47;4.45;;;27.60;55.30;;;;;;1897317;76;21042;-54
2021/06/18 11:44:02;;;;;;;8.38;3.60;;;27.60;54.90;;;;;;1897123;76;21006;-54
2021/06/18 11:46:33;;;;;;;4.30;3.27;;;27.70;55.20;;;;;;1897312;75;21448;-53
2021/06/18 11:49:18;;;;;;;5.97;3.60;;;27.80;53.90;;;;;;1897313;76;21002;-54
2021/06/18 11:51:47;;;;;;;6.72;3.30;;;27.60;54.40;;;;;;1897375;76;21025;-54
2021/06/18 11:54:31;;;;;;;3.45;2.95;;;27.60;55.30;;;;;;1897246;76;21025;-53
2021/06/18 11:57:01;;;;;;;5.70;3.50;;;27.70;54.40;;;;;;1897194;75;21026;-54
2021/06/18 11:59:32;;;;;;;3.75;3.42;;;27.80;54.80;;;;;;1897259;76;21030;-52
2021/06/18 12:02:15;;;;;;;5.03;4.00;;;27.80;54.30;;;;;;1897112;76;21092;-54
2021/06/18 12:04:44;;;;;;;4.65;3.30;;;27.80;53.80;;;;;;1897167;76;21002;-54
2021/06/18 12:07:14;;;;;;;5.92;4.15;;;27.50;54.00;;;;;;1897368;75;21025;-54
2021/06/18 12:09:44;;;;;;;9.00;6.35;;;27.40;54.30;;;;;;1897316;76;21029;-55
2021/06/18 12:12:14;;;;;;;4.65;3.50;;;27.50;55.00;;;;;;1897360;76;21005;-53
2021/06/18 12:14:45;;;;;;;4.55;3.60;;;27.60;54.90;;;;;;1897281;76;21104;-54
2021/06/18 12:17:16;;;;;;;5.03;3.65;;;27.70;54.30;;;;;;1897271;76;21022;-53
2021/06/18 12:19:46;;;;;;;5.12;3.60;;;27.60;54.30;;;;;;1897214;76;21428;-54
2021/06/18 12:22:28;;;;;;;8.63;4.60;;;27.50;54.20;;;;;;1897296;76;21053;-53
2021/06/18 12:24:59;;;;;;;4.20;2.80;;;27.40;54.40;;;;;;1897273;76;21064;-54
2021/06/18 12:27:33;;;;;;;5.00;3.25;;;27.50;54.90;;;;;;1897338;76;21025;-53
2021/06/18 12:30:07;;;;;;;4.72;3.37;;;27.60;54.60;;;;;;1897442;74;21084;-52
2021/06/18 12:32:37;;;;;;;4.00;3.60;;;27.60;54.20;;;;;;1897524;75;21080;-52
2021/06/18 12:35:11;;;;;;;4.62;3.25;;;27.50;54.20;;;;;;1897502;74;21050;-53
2021/06/18 12:37:42;;;;;;;6.28;3.72;;;27.40;54.80;;;;;;1897504;75;21452;-52
2021/06/18 12:40:18;;;;;;;3.00;2.80;;;27.50;54.60;;;;;;1897328;76;21069;-54
2021/06/18 12:42:50;;;;;;;6.53;3.50;;;27.60;54.70;;;;;;1897282;74;21092;-54
2021/06/18 12:45:24;;;;;;;5.25;4.35;;;27.60;54.60;;;;;;1897399;74;21080;-53
2021/06/18 12:48:12;;;;;;;5.87;3.52;;;27.60;55.00;;;;;;1897474;75;21058;-54
2021/06/18 12:50:43;;;;;;;4.28;3.65;;;27.40;54.70;;;;;;1865231;76;21105;-53
2021/06/18 12:53:15;;;;;;;4.78;3.37;;;27.30;55.50;;;;;;1897297;76;21026;-54
2021/06/18 12:55:53;;;;;;;4.55;3.30;;;27.40;55.60;;;;;;1897329;76;21143;-54
2021/06/18 12:58:24;;;;;;;5.45;3.50;;;27.50;55.50;;;;;;1897283;76;21034;-54
2021/06/18 13:01:06;;;;;;;4.15;3.75;;;27.60;55.10;;;;;;1897273;75;21091;-54
2021/06/18 13:03:37;;;;;;;5.90;3.47;;;27.60;54.50;;;;;;1897212;75;21128;-53
2021/06/18 13:06:07;;;;;;;3.35;3.00;;;27.70;54.80;;;;;;1897214;76;21086;-54
2021/06/18 13:08:45;;;;;;;5.58;3.52;;;27.80;54.90;;;;;;1897409;74;21100;-54
2021/06/18 13:11:26;;;;;;;6.95;3.52;;;27.90;55.10;;;;;;1897273;76;21092;-54